createdAt,value
2023-05-10T07:35:30.871Z,94327.00
2023-05-10T07:35:42.239Z,94329.00
2023-05-10T07:35:53.812Z,94331.00
2023-05-10T07:36:05.183Z,94331.00
2023-05-10T07:36:16.757Z,94329.00
2023-05-10T07:36:28.073Z,94333.00
2023-05-10T07:36:39.668Z,94331.00
2023-05-10T07:36:50.993Z,94329.00
2023-05-10T07:37:02.594Z,94331.00
2023-05-10T07:37:13.930Z,94333.00
2023-05-10T07:37:25.533Z,94335.00
2023-05-10T07:37:36.853Z,94333.00
2023-05-10T07:37:48.442Z,94333.00
2023-05-10T07:37:59.749Z,94333.00
2023-05-10T07:38:11.331Z,94335.00
2023-05-10T07:38:22.675Z,94335.00
2023-05-10T07:38:34.299Z,94335.00
2023-05-10T07:38:45.632Z,94337.00
2023-05-10T07:38:57.248Z,94335.00
2023-05-10T07:39:08.573Z,94335.00
2023-05-10T07:39:26.584Z,94335.00
2023-05-10T07:39:32.173Z,94337.00
2023-05-10T07:39:43.541Z,94337.00
2023-05-10T07:39:55.115Z,94333.00
2023-05-10T07:40:06.435Z,94335.00
2023-05-10T07:40:18.058Z,94335.00
2023-05-10T07:40:29.431Z,94337.00
2023-05-10T07:40:40.981Z,94335.00
2023-05-10T07:40:52.329Z,94335.00
2023-05-10T07:41:03.919Z,94333.00
2023-05-10T07:41:15.272Z,94335.00
2023-05-10T07:41:26.875Z,94337.00
2023-05-10T07:41:38.191Z,94337.00
2023-05-10T07:41:49.773Z,94337.00
2023-05-10T07:42:01.103Z,94337.00
2023-05-10T07:42:12.701Z,94337.00
2023-05-10T07:42:24.061Z,94337.00
2023-05-10T07:42:35.780Z,94335.00
2023-05-10T07:42:47.265Z,94337.00
2023-05-10T07:42:58.884Z,94341.00
2023-05-10T07:43:10.229Z,94339.00
2023-05-10T07:43:21.825Z,94341.00
2023-05-10T07:43:33.174Z,94339.00
